sensor_id;sensor_type;location;lat;lon;timestamp;temperature;humidity
8888;DHT22;4480;52.370;9.748;2023-09-08T00:00:47;18.60;94.70
8888;DHT22;4480;52.370;9.748;2023-09-08T00:03:14;18.60;95.00
8888;DHT22;4480;52.370;9.748;2023-09-08T00:05:41;18.50;95.20
8888;DHT22;4480;52.370;9.748;2023-09-08T00:08:08;18.50;95.60
8888;DHT22;4480;52.370;9.748;2023-09-08T00:10:36;18.50;95.90
8888;DHT22;4480;52.370;9.748;2023-09-08T00:13:03;18.40;96.00
8888;DHT22;4480;52.370;9.748;2023-09-08T00:15:30;18.40;96.40
8888;DHT22;4480;52.370;9.748;2023-09-08T00:17:56;18.30;96.60
8888;DHT22;4480;52.370;9.748;2023-09-08T00:20:23;18.30;96.90
8888;DHT22;4480;52.370;9.748;2023-09-08T00:22:50;18.20;97.30
8888;DHT22;4480;52.370;9.748;2023-09-08T00:25:17;18.20;97.50
8888;DHT22;4480;52.370;9.748;2023-09-08T00:27:45;18.10;97.80
8888;DHT22;4480;52.370;9.748;2023-09-08T00:30:12;18.10;98.10
8888;DHT22;4480;52.370;9.748;2023-09-08T00:32:39;18.00;98.40
8888;DHT22;4480;52.370;9.748;2023-09-08T00:35:06;18.00;98.70
8888;DHT22;4480;52.370;9.748;2023-09-08T00:37:33;17.90;99.10
8888;DHT22;4480;52.370;9.748;2023-09-08T00:40:00;17.90;99.40
8888;DHT22;4480;52.370;9.748;2023-09-08T00:42:27;17.80;99.60
8888;DHT22;4480;52.370;9.748;2023-09-08T00:44:55;17.80;99.90
8888;DHT22;4480;52.370;9.748;2023-09-08T00:47:21;17.70;99.90
8888;DHT22;4480;52.370;9.748;2023-09-08T00:49:48;17.70;99.90
8888;DHT22;4480;52.370;9.748;2023-09-08T00:52:16;17.70;99.90
8888;DHT22;4480;52.370;9.748;2023-09-08T00:54:43;17.60;99.90
8888;DHT22;4480;52.370;9.748;2023-09-08T00:57:10;17.60;99.90
8888;DHT22;4480;52.370;9.748;2023-09-08T00:59:37;17.60;99.90
8888;DHT22;4480;52.370;9.748;2023-09-08T01:02:05;17.50;99.90
8888;DHT22;4480;52.370;9.748;2023-09-08T01:04:32;17.60;99.90
8888;DHT22;4480;52.370;9.748;2023-09-08T01:06:59;17.60;99.90
8888;DHT22;4480;52.370;9.748;2023-09-08T01:09:27;17.60;99.90
8888;DHT22;4480;52.370;9.748;2023-09-08T01:11:54;17.50;99.90
8888;DHT22;4480;52.370;9.748;2023-09-08T01:14:27;17.50;99.90
8888;DHT22;4480;52.370;9.748;2023-09-08T01:16:53;17.50;99.90
8888;DHT22;4480;52.370;9.748;2023-09-08T01:19:22;17.50;99.90
8888;DHT22;4480;52.370;9.748;2023-09-08T01:22:11;17.40;99.90
8888;DHT22;4480;52.370;9.748;2023-09-08T01:25:09;17.40;99.90
8888;DHT22;4480;52.370;9.748;2023-09-08T01:27:43;17.30;99.90
8888;DHT22;4480;52.370;9.748;2023-09-08T01:30:12;17.30;99.90
8888;DHT22;4480;52.370;9.748;2023-09-08T01:32:40;17.20;99.90
8888;DHT22;4480;52.370;9.748;2023-09-08T01:35:08;17.20;99.90
8888;DHT22;4480;52.370;9.748;2023-09-08T01:37:35;17.20;99.90
8888;DHT22;4480;52.370;9.748;2023-09-08T01:40:04;17.10;99.90
8888;DHT22;4480;52.370;9.748;2023-09-08T01:42:31;17.10;99.90
8888;DHT22;4480;52.370;9.748;2023-09-08T01:44:58;17.10;99.90
8888;DHT22;4480;52.370;9.748;2023-09-08T01:47:25;17.00;99.90
8888;DHT22;4480;52.370;9.748;2023-09-08T01:49:52;17.00;99.90
8888;DHT22;4480;52.370;9.748;2023-09-08T01:52:18;17.00;99.90
8888;DHT22;4480;52.370;9.748;2023-09-08T01:54:45;17.00;99.90
8888;DHT22;4480;52.370;9.748;2023-09-08T01:57:13;17.00;99.90
8888;DHT22;4480;52.370;9.748;2023-09-08T01:59:40;17.00;99.90
8888;DHT22;4480;52.370;9.748;2023-09-08T02:02:07;17.00;99.90
8888;DHT22;4480;52.370;9.748;2023-09-08T02:04:34;17.00;99.90
8888;DHT22;4480;52.370;9.748;2023-09-08T02:07:00;16.90;99.90
8888;DHT22;4480;52.370;9.748;2023-09-08T02:09:32;16.90;99.90
8888;DHT22;4480;52.370;9.748;2023-09-08T02:12:00;16.90;99.90
8888;DHT22;4480;52.370;9.748;2023-09-08T02:14:28;16.90;99.90
8888;DHT22;4480;52.370;9.748;2023-09-08T02:16:55;16.90;99.90
8888;DHT22;4480;52.370;9.748;2023-09-08T02:19:22;16.90;99.90
8888;DHT22;4480;52.370;9.748;2023-09-08T02:21:48;16.90;99.90
8888;DHT22;4480;52.370;9.748;2023-09-08T02:24:15;16.90;99.90
8888;DHT22;4480;52.370;9.748;2023-09-08T02:26:42;16.80;99.90
8888;DHT22;4480;52.370;9.748;2023-09-08T02:29:09;16.80;99.90
8888;DHT22;4480;52.370;9.748;2023-09-08T02:31:37;16.80;99.90
8888;DHT22;4480;52.370;9.748;2023-09-08T02:34:04;16.70;99.90
8888;DHT22;4480;52.370;9.748;2023-09-08T02:36:31;16.70;99.90
8888;DHT22;4480;52.370;9.748;2023-09-08T02:38:58;16.70;99.90
8888;DHT22;4480;52.370;9.748;2023-09-08T02:41:24;16.70;99.90
8888;DHT22;4480;52.370;9.748;2023-09-08T02:43:51;16.60;99.90
8888;DHT22;4480;52.370;9.748;2023-09-08T02:46:18;16.60;99.90
8888;DHT22;4480;52.370;9.748;2023-09-08T02:48:46;16.50;99.90
8888;DHT22;4480;52.370;9.748;2023-09-08T02:51:13;16.50;99.90
8888;DHT22;4480;52.370;9.748;2023-09-08T02:53:39;16.50;99.90
8888;DHT22;4480;52.370;9.748;2023-09-08T02:56:06;16.50;99.90
8888;DHT22;4480;52.370;9.748;2023-09-08T02:58:35;16.40;99.90
8888;DHT22;4480;52.370;9.748;2023-09-08T03:01:10;16.40;99.90
8888;DHT22;4480;52.370;9.748;2023-09-08T03:03:37;16.30;99.90
8888;DHT22;4480;52.370;9.748;2023-09-08T03:06:05;16.30;99.90
8888;DHT22;4480;52.370;9.748;2023-09-08T03:08:32;16.30;99.90
8888;DHT22;4480;52.370;9.748;2023-09-08T03:10:59;16.30;99.90
8888;DHT22;4480;52.370;9.748;2023-09-08T03:13:26;16.30;99.90
8888;DHT22;4480;52.370;9.748;2023-09-08T03:15:54;16.30;99.90
8888;DHT22;4480;52.370;9.748;2023-09-08T03:18:21;16.20;99.90
8888;DHT22;4480;52.370;9.748;2023-09-08T03:20:48;16.20;99.90
8888;DHT22;4480;52.370;9.748;2023-09-08T03:23:17;16.20;99.90
8888;DHT22;4480;52.370;9.748;2023-09-08T03:25:44;16.20;99.90
8888;DHT22;4480;52.370;9.748;2023-09-08T03:28:11;16.20;99.90
8888;DHT22;4480;52.370;9.748;2023-09-08T03:30:38;16.10;99.90
8888;DHT22;4480;52.370;9.748;2023-09-08T03:33:04;16.10;99.90
8888;DHT22;4480;52.370;9.748;2023-09-08T03:35:31;16.10;99.90
8888;DHT22;4480;52.370;9.748;2023-09-08T03:37:58;16.00;99.90
8888;DHT22;4480;52.370;9.748;2023-09-08T03:40:26;16.00;99.90
8888;DHT22;4480;52.370;9.748;2023-09-08T03:42:52;16.00;99.90
8888;DHT22;4480;52.370;9.748;2023-09-08T03:45:19;16.00;99.90
8888;DHT22;4480;52.370;9.748;2023-09-08T03:47:46;15.90;99.90
8888;DHT22;4480;52.370;9.748;2023-09-08T03:50:13;15.90;99.90
8888;DHT22;4480;52.370;9.748;2023-09-08T03:52:40;15.90;99.90
8888;DHT22;4480;52.370;9.748;2023-09-08T03:55:07;15.90;99.90
8888;DHT22;4480;52.370;9.748;2023-09-08T03:57:35;15.90;99.90
8888;DHT22;4480;52.370;9.748;2023-09-08T04:00:02;15.90;99.90
8888;DHT22;4480;52.370;9.748;2023-09-08T04:02:30;15.80;99.90
8888;DHT22;4480;52.370;9.748;2023-09-08T04:04:57;15.80;99.90
8888;DHT22;4480;52.370;9.748;2023-09-08T04:07:24;15.80;99.90
8888;DHT22;4480;52.370;9.748;2023-09-08T04:12:08;15.80;99.90
8888;DHT22;4480;52.370;9.748;2023-09-08T04:14:36;15.80;99.90
8888;DHT22;4480;52.370;9.748;2023-09-08T04:17:03;15.70;99.90
8888;DHT22;4480;52.370;9.748;2023-09-08T04:19:30;15.70;99.90
8888;DHT22;4480;52.370;9.748;2023-09-08T04:21:56;15.70;99.90
8888;DHT22;4480;52.370;9.748;2023-09-08T04:24:23;15.70;99.90
8888;DHT22;4480;52.370;9.748;2023-09-08T04:26:50;15.60;99.90
8888;DHT22;4480;52.370;9.748;2023-09-08T04:29:18;15.60;99.90
8888;DHT22;4480;52.370;9.748;2023-09-08T04:31:45;15.60;99.90
8888;DHT22;4480;52.370;9.748;2023-09-08T04:34:12;15.60;99.90
8888;DHT22;4480;52.370;9.748;2023-09-08T04:36:38;15.60;99.90
8888;DHT22;4480;52.370;9.748;2023-09-08T04:39:05;15.60;99.90
8888;DHT22;4480;52.370;9.748;2023-09-08T04:41:34;15.60;99.90
8888;DHT22;4480;52.370;9.748;2023-09-08T04:44:01;15.60;99.90
8888;DHT22;4480;52.370;9.748;2023-09-08T04:46:29;15.60;99.90
8888;DHT22;4480;52.370;9.748;2023-09-08T04:48:55;15.50;99.90
8888;DHT22;4480;52.370;9.748;2023-09-08T04:51:22;15.50;99.90
8888;DHT22;4480;52.370;9.748;2023-09-08T04:53:49;15.60;99.90
8888;DHT22;4480;52.370;9.748;2023-09-08T04:56:15;15.60;99.90
8888;DHT22;4480;52.370;9.748;2023-09-08T04:58:42;15.60;99.90
8888;DHT22;4480;52.370;9.748;2023-09-08T05:01:09;15.60;99.90
8888;DHT22;4480;52.370;9.748;2023-09-08T05:03:37;15.60;99.90
8888;DHT22;4480;52.370;9.748;2023-09-08T05:06:04;15.60;99.90
8888;DHT22;4480;52.370;9.748;2023-09-08T05:08:30;15.70;99.90
8888;DHT22;4480;52.370;9.748;2023-09-08T05:10:57;15.80;99.90
8888;DHT22;4480;52.370;9.748;2023-09-08T05:13:24;15.90;99.90
8888;DHT22;4480;52.370;9.748;2023-09-08T05:15:52;16.00;99.90
8888;DHT22;4480;52.370;9.748;2023-09-08T05:18:25;16.00;99.90
8888;DHT22;4480;52.370;9.748;2023-09-08T05:20:53;16.10;99.90
8888;DHT22;4480;52.370;9.748;2023-09-08T05:23:20;16.20;99.90
8888;DHT22;4480;52.370;9.748;2023-09-08T05:25:47;16.20;99.90
8888;DHT22;4480;52.370;9.748;2023-09-08T05:28:13;16.20;99.90
8888;DHT22;4480;52.370;9.748;2023-09-08T05:30:40;16.20;99.90
8888;DHT22;4480;52.370;9.748;2023-09-08T05:33:07;16.30;99.90
8888;DHT22;4480;52.370;9.748;2023-09-08T05:35:34;16.30;99.90
8888;DHT22;4480;52.370;9.748;2023-09-08T05:38:03;16.40;99.90
8888;DHT22;4480;52.370;9.748;2023-09-08T05:40:30;16.40;99.90
8888;DHT22;4480;52.370;9.748;2023-09-08T05:42:57;16.50;99.90
8888;DHT22;4480;52.370;9.748;2023-09-08T05:45:24;16.60;99.90
8888;DHT22;4480;52.370;9.748;2023-09-08T05:47:51;16.60;99.90
8888;DHT22;4480;52.370;9.748;2023-09-08T05:50:18;16.70;99.90
8888;DHT22;4480;52.370;9.748;2023-09-08T05:52:45;16.80;99.90
8888;DHT22;4480;52.370;9.748;2023-09-08T05:55:13;16.90;99.90
8888;DHT22;4480;52.370;9.748;2023-09-08T05:57:39;16.90;99.90
8888;DHT22;4480;52.370;9.748;2023-09-08T06:00:07;17.00;99.90
8888;DHT22;4480;52.370;9.748;2023-09-08T06:02:34;17.10;99.90
8888;DHT22;4480;52.370;9.748;2023-09-08T06:05:01;17.20;99.90
8888;DHT22;4480;52.370;9.748;2023-09-08T06:07:27;17.30;99.90
8888;DHT22;4480;52.370;9.748;2023-09-08T06:09:54;17.40;99.90
8888;DHT22;4480;52.370;9.748;2023-09-08T06:12:23;17.50;99.90
8888;DHT22;4480;52.370;9.748;2023-09-08T06:14:49;17.50;99.90
8888;DHT22;4480;52.370;9.748;2023-09-08T06:17:16;17.70;99.90
8888;DHT22;4480;52.370;9.748;2023-09-08T06:19:43;17.70;99.90
8888;DHT22;4480;52.370;9.748;2023-09-08T06:22:10;17.80;99.90
8888;DHT22;4480;52.370;9.748;2023-09-08T06:24:36;17.90;99.90
8888;DHT22;4480;52.370;9.748;2023-09-08T06:27:03;18.00;99.90
8888;DHT22;4480;52.370;9.748;2023-09-08T06:29:31;18.10;99.90
8888;DHT22;4480;52.370;9.748;2023-09-08T06:31:58;18.20;99.90
8888;DHT22;4480;52.370;9.748;2023-09-08T06:34:25;18.20;99.90
8888;DHT22;4480;52.370;9.748;2023-09-08T06:36:52;18.30;99.90
8888;DHT22;4480;52.370;9.748;2023-09-08T06:39:18;18.40;99.90
8888;DHT22;4480;52.370;9.748;2023-09-08T06:41:45;18.50;99.90
8888;DHT22;4480;52.370;9.748;2023-09-08T06:44:12;18.60;99.90
8888;DHT22;4480;52.370;9.748;2023-09-08T06:46:40;18.70;99.90
8888;DHT22;4480;52.370;9.748;2023-09-08T06:49:07;18.80;99.90
8888;DHT22;4480;52.370;9.748;2023-09-08T06:51:33;18.90;99.90
8888;DHT22;4480;52.370;9.748;2023-09-08T06:54:00;19.00;99.90
8888;DHT22;4480;52.370;9.748;2023-09-08T06:56:27;19.00;99.90
8888;DHT22;4480;52.370;9.748;2023-09-08T06:58:53;19.10;99.90
8888;DHT22;4480;52.370;9.748;2023-09-08T07:01:20;19.20;99.90
8888;DHT22;4480;52.370;9.748;2023-09-08T07:03:48;19.30;99.90
8888;DHT22;4480;52.370;9.748;2023-09-08T07:06:15;19.50;99.90
8888;DHT22;4480;52.370;9.748;2023-09-08T07:08:42;19.50;99.90
8888;DHT22;4480;52.370;9.748;2023-09-08T07:11:09;19.60;99.90
8888;DHT22;4480;52.370;9.748;2023-09-08T07:13:36;19.70;99.90
8888;DHT22;4480;52.370;9.748;2023-09-08T07:16:03;19.80;99.90
8888;DHT22;4480;52.370;9.748;2023-09-08T07:18:30;20.00;99.90
8888;DHT22;4480;52.370;9.748;2023-09-08T07:21:01;20.10;99.50
8888;DHT22;4480;52.370;9.748;2023-09-08T07:23:28;20.20;99.10
8888;DHT22;4480;52.370;9.748;2023-09-08T07:25:55;20.30;98.60
8888;DHT22;4480;52.370;9.748;2023-09-08T07:28:22;20.40;98.10
8888;DHT22;4480;52.370;9.748;2023-09-08T07:30:48;20.50;97.60
8888;DHT22;4480;52.370;9.748;2023-09-08T07:33:15;20.60;97.20
8888;DHT22;4480;52.370;9.748;2023-09-08T07:35:42;20.70;96.70
8888;DHT22;4480;52.370;9.748;2023-09-08T07:38:10;20.80;96.20
8888;DHT22;4480;52.370;9.748;2023-09-08T07:40:37;20.90;95.70
8888;DHT22;4480;52.370;9.748;2023-09-08T07:43:04;21.00;95.20
8888;DHT22;4480;52.370;9.748;2023-09-08T07:45:30;21.10;94.70
8888;DHT22;4480;52.370;9.748;2023-09-08T07:47:57;21.30;94.30
8888;DHT22;4480;52.370;9.748;2023-09-08T07:50:25;21.30;93.70
8888;DHT22;4480;52.370;9.748;2023-09-08T07:52:54;21.40;93.20
8888;DHT22;4480;52.370;9.748;2023-09-08T07:55:23;21.50;92.80
8888;DHT22;4480;52.370;9.748;2023-09-08T07:57:53;21.70;92.40
8888;DHT22;4480;52.370;9.748;2023-09-08T08:00:20;21.80;91.90
8888;DHT22;4480;52.370;9.748;2023-09-08T08:02:48;21.90;91.40
8888;DHT22;4480;52.370;9.748;2023-09-08T08:05:15;22.00;90.90
8888;DHT22;4480;52.370;9.748;2023-09-08T08:07:43;22.10;90.40
8888;DHT22;4480;52.370;9.748;2023-09-08T08:10:10;22.20;90.00
8888;DHT22;4480;52.370;9.748;2023-09-08T08:12:40;22.30;88.90
8888;DHT22;4480;52.370;9.748;2023-09-08T08:15:08;22.50;87.90
8888;DHT22;4480;52.370;9.748;2023-09-08T08:17:36;22.50;86.60
8888;DHT22;4480;52.370;9.748;2023-09-08T08:20:03;22.70;85.80
8888;DHT22;4480;52.370;9.748;2023-09-08T08:22:32;22.70;84.80
8888;DHT22;4480;52.370;9.748;2023-09-08T08:24:59;22.90;84.10
8888;DHT22;4480;52.370;9.748;2023-09-08T08:27:26;23.00;83.20
8888;DHT22;4480;52.370;9.748;2023-09-08T08:29:54;23.10;82.30
8888;DHT22;4480;52.370;9.748;2023-09-08T08:32:23;23.30;81.60
8888;DHT22;4480;52.370;9.748;2023-09-08T08:34:49;23.40;80.70
8888;DHT22;4480;52.370;9.748;2023-09-08T08:37:17;23.50;79.80
8888;DHT22;4480;52.370;9.748;2023-09-08T08:39:44;23.70;79.00
8888;DHT22;4480;52.370;9.748;2023-09-08T08:42:11;23.80;77.70
8888;DHT22;4480;52.370;9.748;2023-09-08T08:44:38;23.90;76.50
8888;DHT22;4480;52.370;9.748;2023-09-08T08:47:07;24.10;75.50
8888;DHT22;4480;52.370;9.748;2023-09-08T08:49:34;24.20;74.20
8888;DHT22;4480;52.370;9.748;2023-09-08T08:52:03;24.30;72.70
8888;DHT22;4480;52.370;9.748;2023-09-08T08:54:33;24.30;71.80
8888;DHT22;4480;52.370;9.748;2023-09-08T08:57:01;24.40;70.90
8888;DHT22;4480;52.370;9.748;2023-09-08T08:59:29;24.50;70.10
8888;DHT22;4480;52.370;9.748;2023-09-08T09:01:57;24.60;69.40
8888;DHT22;4480;52.370;9.748;2023-09-08T09:04:25;24.70;68.70
8888;DHT22;4480;52.370;9.748;2023-09-08T09:06:53;24.80;67.90
8888;DHT22;4480;52.370;9.748;2023-09-08T09:09:19;24.90;67.10
8888;DHT22;4480;52.370;9.748;2023-09-08T09:11:47;24.90;66.30
8888;DHT22;4480;52.370;9.748;2023-09-08T09:14:13;25.00;65.70
8888;DHT22;4480;52.370;9.748;2023-09-08T09:16:40;25.10;65.20
8888;DHT22;4480;52.370;9.748;2023-09-08T09:19:07;25.20;64.80
8888;DHT22;4480;52.370;9.748;2023-09-08T09:21:46;25.30;64.50
8888;DHT22;4480;52.370;9.748;2023-09-08T09:24:16;25.40;64.00
8888;DHT22;4480;52.370;9.748;2023-09-08T09:26:44;25.50;63.50
8888;DHT22;4480;52.370;9.748;2023-09-08T09:29:14;25.70;63.10
8888;DHT22;4480;52.370;9.748;2023-09-08T09:31:50;25.80;62.50
8888;DHT22;4480;52.370;9.748;2023-09-08T09:34:18;25.90;61.90
8888;DHT22;4480;52.370;9.748;2023-09-08T09:36:47;25.90;61.50
8888;DHT22;4480;52.370;9.748;2023-09-08T09:39:17;26.00;60.90
8888;DHT22;4480;52.370;9.748;2023-09-08T09:41:45;26.10;60.50
8888;DHT22;4480;52.370;9.748;2023-09-08T09:44:11;26.10;60.20
8888;DHT22;4480;52.370;9.748;2023-09-08T09:46:38;26.20;60.00
8888;DHT22;4480;52.370;9.748;2023-09-08T09:49:05;26.30;59.80
8888;DHT22;4480;52.370;9.748;2023-09-08T09:51:32;26.40;59.50
8888;DHT22;4480;52.370;9.748;2023-09-08T09:54:07;26.40;59.30
8888;DHT22;4480;52.370;9.748;2023-09-08T09:56:34;26.50;59.20
8888;DHT22;4480;52.370;9.748;2023-09-08T09:59:03;26.60;59.10
8888;DHT22;4480;52.370;9.748;2023-09-08T10:01:31;26.70;59.10
8888;DHT22;4480;52.370;9.748;2023-09-08T10:03:59;26.70;59.10
8888;DHT22;4480;52.370;9.748;2023-09-08T10:06:27;26.80;59.20
8888;DHT22;4480;52.370;9.748;2023-09-08T10:08:54;26.90;59.20
8888;DHT22;4480;52.370;9.748;2023-09-08T10:11:23;27.00;58.90
8888;DHT22;4480;52.370;9.748;2023-09-08T10:13:58;27.00;58.20
8888;DHT22;4480;52.370;9.748;2023-09-08T10:16:26;27.10;57.70
8888;DHT22;4480;52.370;9.748;2023-09-08T10:18:54;27.20;57.20
8888;DHT22;4480;52.370;9.748;2023-09-08T10:21:26;27.20;57.20
8888;DHT22;4480;52.370;9.748;2023-09-08T10:23:59;27.30;57.10
8888;DHT22;4480;52.370;9.748;2023-09-08T10:26:32;27.40;56.70
8888;DHT22;4480;52.370;9.748;2023-09-08T10:29:00;27.50;56.20
8888;DHT22;4480;52.370;9.748;2023-09-08T10:31:28;27.60;55.70
8888;DHT22;4480;52.370;9.748;2023-09-08T10:33:56;27.70;55.30
8888;DHT22;4480;52.370;9.748;2023-09-08T10:36:24;27.70;55.00
8888;DHT22;4480;52.370;9.748;2023-09-08T10:38:51;27.80;54.80
8888;DHT22;4480;52.370;9.748;2023-09-08T10:41:27;27.90;54.60
8888;DHT22;4480;52.370;9.748;2023-09-08T10:44:02;28.00;54.30
8888;DHT22;4480;52.370;9.748;2023-09-08T10:46:31;28.10;54.00
8888;DHT22;4480;52.370;9.748;2023-09-08T10:49:02;28.10;53.70
8888;DHT22;4480;52.370;9.748;2023-09-08T10:51:30;28.20;53.60
8888;DHT22;4480;52.370;9.748;2023-09-08T10:53:56;28.30;53.20
8888;DHT22;4480;52.370;9.748;2023-09-08T10:56:27;28.30;52.70
8888;DHT22;4480;52.370;9.748;2023-09-08T10:58:55;28.30;52.50
8888;DHT22;4480;52.370;9.748;2023-09-08T11:01:23;28.30;52.30
8888;DHT22;4480;52.370;9.748;2023-09-08T11:03:53;28.40;52.20
8888;DHT22;4480;52.370;9.748;2023-09-08T11:06:21;28.50;52.00
8888;DHT22;4480;52.370;9.748;2023-09-08T11:08:49;28.60;51.80
8888;DHT22;4480;52.370;9.748;2023-09-08T11:11:18;28.60;51.50
8888;DHT22;4480;52.370;9.748;2023-09-08T11:13:45;28.60;51.30
8888;DHT22;4480;52.370;9.748;2023-09-08T11:16:13;28.70;51.10
8888;DHT22;4480;52.370;9.748;2023-09-08T11:18:41;28.70;50.90
8888;DHT22;4480;52.370;9.748;2023-09-08T11:21:09;28.60;50.70
8888;DHT22;4480;52.370;9.748;2023-09-08T11:23:37;28.70;50.70
8888;DHT22;4480;52.370;9.748;2023-09-08T11:26:04;28.70;50.60
8888;DHT22;4480;52.370;9.748;2023-09-08T11:28:32;28.80;50.50
8888;DHT22;4480;52.370;9.748;2023-09-08T11:30:58;28.80;50.30
8888;DHT22;4480;52.370;9.748;2023-09-08T11:33:25;28.80;50.10
8888;DHT22;4480;52.370;9.748;2023-09-08T11:35:54;28.90;49.90
8888;DHT22;4480;52.370;9.748;2023-09-08T11:38:24;29.00;49.60
8888;DHT22;4480;52.370;9.748;2023-09-08T11:40:52;29.10;49.30
8888;DHT22;4480;52.370;9.748;2023-09-08T11:43:20;29.10;49.20
8888;DHT22;4480;52.370;9.748;2023-09-08T11:45:47;29.10;49.10
8888;DHT22;4480;52.370;9.748;2023-09-08T11:48:14;29.10;49.20
8888;DHT22;4480;52.370;9.748;2023-09-08T11:50:41;29.20;49.40
8888;DHT22;4480;52.370;9.748;2023-09-08T11:53:10;29.30;49.20
8888;DHT22;4480;52.370;9.748;2023-09-08T11:55:37;29.30;49.10
8888;DHT22;4480;52.370;9.748;2023-09-08T11:58:04;29.40;48.80
8888;DHT22;4480;52.370;9.748;2023-09-08T12:00:32;29.60;48.50
8888;DHT22;4480;52.370;9.748;2023-09-08T12:03:10;29.60;47.60
8888;DHT22;4480;52.370;9.748;2023-09-08T12:05:37;29.60;46.50
8888;DHT22;4480;52.370;9.748;2023-09-08T12:08:05;29.70;45.80
8888;DHT22;4480;52.370;9.748;2023-09-08T12:10:39;29.80;45.10
8888;DHT22;4480;52.370;9.748;2023-09-08T12:13:06;29.80;44.40
8888;DHT22;4480;52.370;9.748;2023-09-08T12:15:35;29.90;43.90
8888;DHT22;4480;52.370;9.748;2023-09-08T12:18:03;30.00;43.30
8888;DHT22;4480;52.370;9.748;2023-09-08T12:20:30;30.00;43.10
8888;DHT22;4480;52.370;9.748;2023-09-08T12:23:00;30.00;42.70
8888;DHT22;4480;52.370;9.748;2023-09-08T12:25:27;30.00;42.30
8888;DHT22;4480;52.370;9.748;2023-09-08T12:27:58;30.00;42.30
8888;DHT22;4480;52.370;9.748;2023-09-08T12:30:25;30.10;42.50
8888;DHT22;4480;52.370;9.748;2023-09-08T12:32:56;30.10;42.30
8888;DHT22;4480;52.370;9.748;2023-09-08T12:35:23;30.10;42.30
8888;DHT22;4480;52.370;9.748;2023-09-08T12:37:57;30.20;42.30
8888;DHT22;4480;52.370;9.748;2023-09-08T12:40:25;30.20;41.80
8888;DHT22;4480;52.370;9.748;2023-09-08T12:42:52;30.20;41.70
8888;DHT22;4480;52.370;9.748;2023-09-08T12:45:21;30.30;41.60
8888;DHT22;4480;52.370;9.748;2023-09-08T12:47:49;30.30;41.20
8888;DHT22;4480;52.370;9.748;2023-09-08T12:50:15;30.40;41.10
8888;DHT22;4480;52.370;9.748;2023-09-08T12:52:42;30.40;40.40
8888;DHT22;4480;52.370;9.748;2023-09-08T12:55:10;30.50;39.70
8888;DHT22;4480;52.370;9.748;2023-09-08T12:57:37;30.50;39.10
8888;DHT22;4480;52.370;9.748;2023-09-08T13:00:06;30.50;38.60
8888;DHT22;4480;52.370;9.748;2023-09-08T13:02:34;30.60;38.60
8888;DHT22;4480;52.370;9.748;2023-09-08T13:05:01;30.60;38.50
8888;DHT22;4480;52.370;9.748;2023-09-08T13:07:28;30.60;38.50
8888;DHT22;4480;52.370;9.748;2023-09-08T13:09:55;30.70;38.60
8888;DHT22;4480;52.370;9.748;2023-09-08T13:12:22;30.70;38.60
8888;DHT22;4480;52.370;9.748;2023-09-08T13:14:48;30.80;38.30
8888;DHT22;4480;52.370;9.748;2023-09-08T13:17:15;30.80;38.30
8888;DHT22;4480;52.370;9.748;2023-09-08T13:19:44;30.80;38.10
8888;DHT22;4480;52.370;9.748;2023-09-08T13:22:11;30.80;38.00
8888;DHT22;4480;52.370;9.748;2023-09-08T13:24:38;30.80;37.90
8888;DHT22;4480;52.370;9.748;2023-09-08T13:27:05;30.80;37.60
8888;DHT22;4480;52.370;9.748;2023-09-08T13:29:32;30.80;37.30
8888;DHT22;4480;52.370;9.748;2023-09-08T13:31:59;30.80;37.40
8888;DHT22;4480;52.370;9.748;2023-09-08T13:34:25;30.90;37.50
8888;DHT22;4480;52.370;9.748;2023-09-08T13:36:53;30.90;37.50
8888;DHT22;4480;52.370;9.748;2023-09-08T13:39:20;30.90;36.90
8888;DHT22;4480;52.370;9.748;2023-09-08T13:41:48;30.90;36.40
8888;DHT22;4480;52.370;9.748;2023-09-08T13:44:16;30.90;35.90
8888;DHT22;4480;52.370;9.748;2023-09-08T13:46:43;30.90;35.20
8888;DHT22;4480;52.370;9.748;2023-09-08T13:49:10;30.90;34.40
8888;DHT22;4480;52.370;9.748;2023-09-08T13:51:37;30.90;33.40
8888;DHT22;4480;52.370;9.748;2023-09-08T13:54:05;30.90;32.80
8888;DHT22;4480;52.370;9.748;2023-09-08T13:56:32;30.90;32.50
8888;DHT22;4480;52.370;9.748;2023-09-08T13:58:59;30.90;32.40
8888;DHT22;4480;52.370;9.748;2023-09-08T14:01:27;30.90;32.10
8888;DHT22;4480;52.370;9.748;2023-09-08T14:03:54;30.90;32.00
8888;DHT22;4480;52.370;9.748;2023-09-08T14:06:21;31.00;32.30
8888;DHT22;4480;52.370;9.748;2023-09-08T14:08:48;31.00;32.40
8888;DHT22;4480;52.370;9.748;2023-09-08T14:11:16;30.90;32.50
8888;DHT22;4480;52.370;9.748;2023-09-08T14:13:43;30.90;32.50
8888;DHT22;4480;52.370;9.748;2023-09-08T14:16:10;30.90;32.50
8888;DHT22;4480;52.370;9.748;2023-09-08T14:18:37;30.90;32.50
8888;DHT22;4480;52.370;9.748;2023-09-08T14:21:04;30.90;32.40
8888;DHT22;4480;52.370;9.748;2023-09-08T14:23:32;30.90;32.40
8888;DHT22;4480;52.370;9.748;2023-09-08T14:25:59;30.90;32.60
8888;DHT22;4480;52.370;9.748;2023-09-08T14:28:28;30.80;33.00
8888;DHT22;4480;52.370;9.748;2023-09-08T14:30:57;30.80;33.20
8888;DHT22;4480;52.370;9.748;2023-09-08T14:33:24;30.80;33.40
8888;DHT22;4480;52.370;9.748;2023-09-08T14:35:51;30.70;33.40
8888;DHT22;4480;52.370;9.748;2023-09-08T14:38:19;30.70;33.50
8888;DHT22;4480;52.370;9.748;2023-09-08T14:40:54;30.70;33.30
8888;DHT22;4480;52.370;9.748;2023-09-08T14:43:21;30.70;33.40
8888;DHT22;4480;52.370;9.748;2023-09-08T14:45:49;30.60;33.70
8888;DHT22;4480;52.370;9.748;2023-09-08T14:48:15;30.60;33.70
8888;DHT22;4480;52.370;9.748;2023-09-08T14:50:43;30.60;33.80
8888;DHT22;4480;52.370;9.748;2023-09-08T14:53:10;30.60;34.10
8888;DHT22;4480;52.370;9.748;2023-09-08T14:55:37;30.60;34.20
8888;DHT22;4480;52.370;9.748;2023-09-08T14:58:04;30.60;34.10
8888;DHT22;4480;52.370;9.748;2023-09-08T15:00:31;30.60;33.70
8888;DHT22;4480;52.370;9.748;2023-09-08T15:02:59;30.60;34.10
8888;DHT22;4480;52.370;9.748;2023-09-08T15:05:27;30.60;35.00
8888;DHT22;4480;52.370;9.748;2023-09-08T15:07:53;30.60;35.60
8888;DHT22;4480;52.370;9.748;2023-09-08T15:10:20;30.50;36.10
8888;DHT22;4480;52.370;9.748;2023-09-08T15:12:47;30.50;36.50
8888;DHT22;4480;52.370;9.748;2023-09-08T15:15:14;30.50;36.40
8888;DHT22;4480;52.370;9.748;2023-09-08T15:17:41;30.50;36.50
8888;DHT22;4480;52.370;9.748;2023-09-08T15:20:10;30.50;36.50
8888;DHT22;4480;52.370;9.748;2023-09-08T15:22:38;30.50;36.60
8888;DHT22;4480;52.370;9.748;2023-09-08T15:25:05;30.40;36.70
8888;DHT22;4480;52.370;9.748;2023-09-08T15:27:33;30.40;36.90
8888;DHT22;4480;52.370;9.748;2023-09-08T15:30:00;30.40;37.20
8888;DHT22;4480;52.370;9.748;2023-09-08T15:32:26;30.40;37.40
8888;DHT22;4480;52.370;9.748;2023-09-08T15:34:53;30.30;37.70
8888;DHT22;4480;52.370;9.748;2023-09-08T15:37:21;30.30;38.10
8888;DHT22;4480;52.370;9.748;2023-09-08T15:39:48;30.30;38.40
8888;DHT22;4480;52.370;9.748;2023-09-08T15:42:15;30.30;38.70
8888;DHT22;4480;52.370;9.748;2023-09-08T15:44:41;30.20;39.00
8888;DHT22;4480;52.370;9.748;2023-09-08T15:47:08;30.20;39.70
8888;DHT22;4480;52.370;9.748;2023-09-08T15:49:35;30.20;40.20
8888;DHT22;4480;52.370;9.748;2023-09-08T15:52:02;30.20;40.60
8888;DHT22;4480;52.370;9.748;2023-09-08T15:54:30;30.10;41.00
8888;DHT22;4480;52.370;9.748;2023-09-08T15:56:57;30.00;41.20
8888;DHT22;4480;52.370;9.748;2023-09-08T15:59:23;30.00;41.50
8888;DHT22;4480;52.370;9.748;2023-09-08T16:01:50;30.00;41.70
8888;DHT22;4480;52.370;9.748;2023-09-08T16:04:17;29.90;41.90
8888;DHT22;4480;52.370;9.748;2023-09-08T16:06:43;29.90;42.10